DAON

Zenata – Messali El Hadj Airport

Tlemcen, Algeria
TAF DAON 161100Z 1612/1712 01012KT CAVOK BECMG 1620/1623 VRB02KT 9999 FEW026 SCT100
Issued Valid From Valid To
Jul-16 @ 11:00 UTC
(9 hours ago)
Jul-16 @ 12:00 UTC
(8 hours ago)
Jul-17 @ 12:00 UTC
(in 16 hours)
Jul-16 @ 12:00 to Jul-16 @ 20:00
TAF DAON 161100Z 1612/1712 01012KT CAVOK
Wind Visibility Clouds Conditions
10° at 12 knots 10,000+ meters
  • No significant clouds
Becoming Jul-16 @ 20:00 to Jul-17 @ 12:00
BECMG 1620/1623 VRB02KT 9999 FEW026 SCT100
Wind Visibility Clouds Conditions
Variable at 2 knots 10,000+ meters
  • Few at 2,600' AGL
  • Scattered at 10,000' AGL
TAF DAON 161100Z 1612/1712 01012KT CAVOK BECMG 1620/1623 VRB02KT 9999 FEW026 SCT100
Issued Jul-16 @ 11:00 UTC
(9 hours ago)
Valid From Jul-16 @ 12:00 UTC
(8 hours ago)
Valid To Jul-17 @ 12:00 UTC
(in 16 hours)
Jul-16 @ 12:00 - Jul-16 @ 20:00
Wind Visibility
10° at 12 knots 10,000+ meters
Clouds
  • No significant clouds
Conditions
Becoming Jul-16 @ 20:00 - Jul-17 @ 12:00
Wind Visibility
Variable at 2 knots 10,000+ meters
Clouds
  • Few at 2,600' AGL
  • Scattered at 10,000' AGL
Conditions